Benvolgut visitant, si us plau, ingressa Recuperar contrasenya
AVAMET paisatges
Union Alcoyana

les Coves de Vinromà Mas del Tonto

Dades diàries. Acumulats / Últims 30 dies disponibles

Data Temperatura (°C) Humitat rel. (%) Pressió rel. (hPa) Vent (km/h) Precipitació
Mínima Mitjana Màxima Amplitud
tèrmica
Mínima Mitjana Màxima Mínima Mitjana Màxima Predom. Mitjana Ràfega
màxima
Total
(mm)
Índex-n
Mínima Mitjana Màxima Mínima Mitjana Màxima n
0 a 1
P0 max
mm 5'
Dades mensuals acumulades fins l'últim dia disponible
02/2023 2,8 4,1 4,9 8,8 13,8 15,3 16,1 13,3 34 61 85 1.028 1.030 1.033   4,0 29,0 0,0
Dades anuals acumulades fins l'últim dia disponible
2023 1,3 4,7 10,2 8,8 7,2 13,9 19,4 18,1 30 60 97 994 1.022 1.035   8,9 95,0 2,2
Últims 30 dies disponibles
03-02-2023 2,8     9,2     16,1 13,3 34 55 78 1.031 1.032 1.033 WNW 3,2 17,7 0,0
02-02-2023 4,7     9,1     16,1 11,4 34 59 77 1.028 1.030 1.032 WNW 3,9 19,3 0,0
01-02-2023 4,9     8,0     13,8 8,9 44 68 85 1.028 1.029 1.030 W 4,8 29,0 0,0
31-01-2023 2,6     7,7     14,6 12,0 32 55 81 1.027 1.028 1.030 SO 4,8 27,4 0,0
30-01-2023 1,6     5,3     11,8 10,2 38 61 71 1.027 1.029 1.030 WNW 4,7 33,8 0,0
29-01-2023 2,3     4,6     8,9 6,6 47 59 67 1.023 1.026 1.030 WNW 7,6 30,6 0,0
28-01-2023 1,9     5,6     10,1 8,2 41 57 77 1.017 1.019 1.024 WNW 10,0 45,1 0,0
27-01-2023 4,2     6,4     10,2 6,0 39 52 58 1.013 1.015 1.018 WNW 13,0 46,7 0,0
26-01-2023 5,8     7,8     10,1 4,3 47 55 62 1.015 1.016 1.021 WNW 17,5 62,8 0,0
25-01-2023 3,9     6,5     10,9 7,0 40 56 68 1.022 1.025 1.028 WNW 15,6 54,7 0,0
24-01-2023 1,3     4,3     8,3 7,0 44 58 67 1.024 1.026 1.028 WNW 12,6 38,6 0,0
23-01-2023 2,1     4,5     7,2 5,1 41 52 63 1.020 1.022 1.024 WNW 18,8 64,4 0,0
22-01-2023 2,5     5,3     8,8 6,3 31 39 47 1.019 1.021 1.023 WNW 24,6 75,6 0,0
21-01-2023 4,4     6,2     8,7 4,3 30 42 54 1.018 1.019 1.022 WNW 19,5 70,8 0,0
20-01-2023 7,1     10,1     13,8 6,7 33 46 58 1.005 1.015 1.020 WNW 18,0 83,7 0,0
19-01-2023 5,6     8,8     13,7 8,1 34 46 54 1.007 1.014 1.018 WNW 15,9 74,0 0,0
18-01-2023 5,8     7,6     9,4 3,6 30 43 64 997 1.004 1.010 WNW 20,0 95,0 0,0
17-01-2023 5,8     12,5     16,0 10,2 35 50 73 994 997 1.000 W 12,7 75,6 0,0
16-01-2023 3,3     11,2     18,5 15,2 37 51 63 999 1.007 1.019 SW 6,6 59,5 0,0
15-01-2023 6,2     10,8     17,9 11,7 44 57 73 1.018 1.020 1.022 WNW 7,6 46,7 0,0
14-01-2023 4,9     10,1     16,2 11,3 45 60 79 1.022 1.026 1.029 SE 3,7 17,7 0,0
13-01-2023 4,1     11,4     16,9 12,8 34 55 81 1.025 1.027 1.029 WNW 7,1 38,6 0,0
12-01-2023 6,8     10,8     16,7 9,9 32 57 81 1.026 1.028 1.030 W 5,6 48,3 0,0
11-01-2023 5,9     11,8     17,2 11,3 52 63 80 1.025 1.026 1.030 WNW 7,9 40,2 0,0
10-01-2023 6,5     10,6     15,6 9,1 43 59 84 1.027 1.028 1.030 WNW 4,0 19,3 0,0
09-01-2023 10,2     14,0     17,2 7,0 35 52 74 1.013 1.020 1.027 WNW 8,0 43,5 0,0
08-01-2023 7,0     12,8     19,4 12,4 53 79 94 1.011 1.015 1.020 SE 3,9 27,4 1,8 0,40
07-01-2023 2,8     7,7     14,1 11,3 67 89 97 1.020 1.023 1.025 NW 2,6 14,5 0,2
06-01-2023 3,7     8,5     14,9 11,2 63 84 95 1.025 1.026 1.027 SE 2,4 16,1 0,0
05-01-2023 4,6     8,9     14,8 10,2 57 76 88 1.027 1.030 1.034 WNW 2,4 19,3 0,0
Últims 13 mesos disponibles
12/2022 2,7 7,5 12,7 11,4 9,6 16,1 23,3 20,6 56 77 96 999 1.017 1.030 WNW 2,9 40,2 13,6
11/2022 3,4 10,1 14,2 14,0 12,8 18,8 23,3 19,9 43 70 92 1.006 1.018 1.028 WNW 7,4 85,3 109,4
10/2022 12,2 14,7 17,9 18,6 19,7 24,0 27,4 15,2 54 81 91 1.015 1.021 1.027 SE 3,7 29,0 50,0
09/2022 13,1 17,5 21,4 21,7 21,0 26,8 30,9 17,8 47 69 88 1.005 1.014 1.019 WNW 5,9 70,8 27,0
08/2022 15,7 20,1 23,9 25,7 27,7 31,4 38,4 22,7 36 62 79 1.008 1.014 1.018 ESE 6,5 62,8 2,6
07/2022 15,7 19,4 22,3 25,1 26,2 30,7 34,8 19,1 40 64 87 1.013 1.018 1.022 S 5,5 38,6 12,8
06/2022 12,9 17,0 20,7 22,9 23,2 28,7 35,8 22,9 38 66 82 1.010 1.015 1.021 S 5,5 38,6 14,2
05/2022 9,7 12,9 17,4 18,7 14,6 24,3 32,1 22,4 48 64 86 1.007 1.017 1.025 S 6,1 53,1 38,0
04/2022 2,9 9,0 13,3 13,3 9,6 18,0 25,4 22,5 41 66 97 993 1.008 1.018 S 8,0 101,2 103,2
03/2022 3,7 7,5 11,6 10,3 8,6 13,8 19,2 15,5 52 83 94 1.004 1.021 1.028 SSO 7,9 62,0 228,0
02/2022 2,6 6,7 11,1 11,6 10,1 17,2 25,2 22,6 41 62 88 1.017 1.026 1.033 SSO 7,3 88,0 2,9
01/2022 0,0 3,3 10,1 8,6 9,0 14,8 19,3 19,3 30 61 90 1.023 1.030 1.034 SO 4,7 90,0 0,0
Tots els anys disponibles
2022 0,0 12,6 23,9 17,3 8,6 22,4 38,4 38,4 30 69 97 993 1.018 1.034 S 6,0 101,2 601,7
Temperatura (°C)
Humitat relativa (%)
Velocitat del vent i ràfega màxima (km/h)
Direcció del vent (°)
Pressió (hPa)
Precipitació (mm)
Nota sobre les dades: s'avisa a l'usuari de la provisionalitat i no oficialitat d'aquestes dades
Logo AVAMET blanc
Web allotjada a Sollutia
Llicència de Creative CommonsLa web d'AVAMET i els seus continguts estan subjectes a una llicència de
Reconeixement - No Comercial - Compartir igual
Avís legal - Política de privacitat - Política de cookies
NOVES ESTACIONS: Alcosser (Ajuntament/Soci), El Toro - Hoya del Campillo (Soci), Les Coves de Vinromà - casc antic (Soci), Villar del Arzobispo - Casica Roger (Ajuntament/Soci), Villar del Arzobispo (Ajuntament/Soci), Castelló de la Plana - Carrer Riu Xúquer (Soci), Formentera del Segura (Soci), Benissa (Ajuntament/Soci), Favara (Ajuntament/Soci), Ayora - Polígono (Soci), Villena - la Boquera (Soci), Ibi - IES la Foia (Soci), Vallada - Molí de Baix (Soci) - - -